createdAt,value
2022-12-04T00:01:24.013Z,78.58
2022-12-04T00:04:00.371Z,78.53
2022-12-04T00:06:28.533Z,78.66
2022-12-04T00:08:56.574Z,78.99
2022-12-04T00:11:30.765Z,79.12
2022-12-04T00:14:04.822Z,79.26
2022-12-04T00:16:34.483Z,79.17
2022-12-04T00:19:02.113Z,79.05
2022-12-04T00:21:29.770Z,79.32
2022-12-04T00:23:57.408Z,79.16
2022-12-04T14:27:11.939Z,98.22
2022-12-04T14:29:54.630Z,99.35
2022-12-04T14:32:25.579Z,100.00
2022-12-04T14:34:54.423Z,98.92
2022-12-04T14:37:28.760Z,99.68
2022-12-04T14:39:58.017Z,98.71
2022-12-04T14:42:30.280Z,97.89
2022-12-04T14:45:00.041Z,97.12
2022-12-04T14:47:47.578Z,97.31
2022-12-04T14:50:53.191Z,96.50
2022-12-04T14:53:49.241Z,95.99
2022-12-04T14:56:43.093Z,94.11
2022-12-04T14:59:22.141Z,94.29
2022-12-04T15:01:53.281Z,94.08
2022-12-04T15:04:32.396Z,92.85
2022-12-04T15:07:00.946Z,93.66
2022-12-04T15:09:47.880Z,93.51
2022-12-04T15:12:36.576Z,92.92
2022-12-04T15:15:17.734Z,91.65
2022-12-04T15:18:00.274Z,90.94
2022-12-04T15:20:37.458Z,91.97
2022-12-04T15:23:06.768Z,91.95
2022-12-04T15:25:51.775Z,91.57
2022-12-04T15:28:31.504Z,91.99
2022-12-04T15:31:04.188Z,91.38
2022-12-04T15:33:37.572Z,91.33
2022-12-04T15:36:14.697Z,90.46
2022-12-04T15:38:42.825Z,90.91
2022-12-04T15:41:34.009Z,90.33
2022-12-04T15:44:01.739Z,89.75
2022-12-04T15:46:35.133Z,90.66
2022-12-04T15:49:18.488Z,90.10
2022-12-04T15:51:47.857Z,90.17
2022-12-04T15:54:24.640Z,90.02
2022-12-04T15:57:22.981Z,89.31
2022-12-04T15:59:52.093Z,90.21
2022-12-04T16:02:33.221Z,89.89
2022-12-04T16:05:21.210Z,88.34
2022-12-04T16:07:54.635Z,89.29
2022-12-04T16:10:25.008Z,89.26
2022-12-04T16:13:01.199Z,89.20
2022-12-04T16:15:37.761Z,88.76
2022-12-04T16:18:07.326Z,89.17
2022-12-04T16:20:38.418Z,89.30
2022-12-04T16:23:10.435Z,89.08
2022-12-04T16:25:38.585Z,88.97
2022-12-04T16:28:06.189Z,89.26
2022-12-04T16:30:35.920Z,88.98
2022-12-04T16:33:03.898Z,88.91
2022-12-04T16:35:31.843Z,89.14
2022-12-04T16:37:59.451Z,89.06
2022-12-04T16:40:27.040Z,89.02
2022-12-04T16:42:54.649Z,89.04
2022-12-04T16:45:32.241Z,89.08
2022-12-04T16:48:00.604Z,89.25
2022-12-04T16:50:29.103Z,89.02
2022-12-04T16:52:58.368Z,88.96
2022-12-04T16:55:34.036Z,88.99
2022-12-04T16:58:02.910Z,89.19
2022-12-04T17:00:31.087Z,88.84
2022-12-04T17:02:59.161Z,88.83
2022-12-04T17:05:29.053Z,88.96
2022-12-04T17:07:56.834Z,88.46
2022-12-04T17:10:26.889Z,88.55
2022-12-04T17:12:55.268Z,88.05
2022-12-04T17:15:22.986Z,88.56
2022-12-04T17:17:51.277Z,88.72
2022-12-04T17:20:21.413Z,88.28
2022-12-04T17:22:49.700Z,88.25
2022-12-04T17:25:18.365Z,88.33
2022-12-04T17:27:46.499Z,88.07
2022-12-04T17:30:14.819Z,88.21
2022-12-04T17:32:42.645Z,87.84
2022-12-04T17:35:12.280Z,88.00
2022-12-04T17:37:40.134Z,87.76
2022-12-04T17:40:10.742Z,87.69
2022-12-04T17:42:38.344Z,87.91
2022-12-04T17:45:06.793Z,87.78
2022-12-04T17:47:36.369Z,87.64
2022-12-04T17:50:07.615Z,87.49
2022-12-04T17:52:35.441Z,87.58
2022-12-04T17:55:03.119Z,87.24
2022-12-04T17:57:30.817Z,87.17
2022-12-04T17:59:58.434Z,87.42
2022-12-04T18:02:26.887Z,87.19
2022-12-04T18:04:56.319Z,87.39
2022-12-04T18:07:24.356Z,87.16
2022-12-04T18:09:52.001Z,86.93
2022-12-04T18:12:19.615Z,87.07
2022-12-04T18:14:47.267Z,86.95
2022-12-04T18:17:17.693Z,86.96
2022-12-04T18:19:45.272Z,86.60
2022-12-04T18:22:12.876Z,86.45
2022-12-04T18:24:40.549Z,86.49
2022-12-04T18:27:08.587Z,86.50
2022-12-04T18:29:36.524Z,86.76
2022-12-04T18:32:04.509Z,86.73
2022-12-04T18:34:32.636Z,86.75
2022-12-04T18:37:00.420Z,86.55
2022-12-04T18:39:28.444Z,86.92
2022-12-04T18:41:57.145Z,86.70
2022-12-04T18:44:27.858Z,86.65
2022-12-04T18:46:57.443Z,86.86
2022-12-04T18:49:25.164Z,86.80
2022-12-04T18:51:52.996Z,86.80
2022-12-04T18:54:23.860Z,86.67
2022-12-04T18:56:52.249Z,86.49
2022-12-04T18:59:22.541Z,86.65
2022-12-04T19:01:50.655Z,86.80
2022-12-04T19:04:20.008Z,86.65
2022-12-04T19:06:55.084Z,86.75
2022-12-04T19:09:47.274Z,86.92
2022-12-04T19:12:13.565Z,86.90
2022-12-04T19:14:41.226Z,86.90
2022-12-04T19:17:09.322Z,86.78
2022-12-04T19:19:37.089Z,86.84
2022-12-04T19:22:04.887Z,86.81
2022-12-04T19:24:32.821Z,86.82
2022-12-04T19:27:02.242Z,86.56
2022-12-04T19:29:29.949Z,86.88
2022-12-04T19:31:59.585Z,86.81
2022-12-04T19:34:27.500Z,86.50
2022-12-04T19:36:55.263Z,86.60
2022-12-04T19:39:22.939Z,86.78
2022-12-04T19:41:50.606Z,86.82
2022-12-04T19:47:05.852Z,86.35
2022-12-04T19:49:33.566Z,86.32
2022-12-04T19:52:01.308Z,86.31
2022-12-04T19:54:30.175Z,86.50
2022-12-04T19:56:57.805Z,85.76
2022-12-04T19:59:25.474Z,85.86
2022-12-04T20:01:53.135Z,85.78
2022-12-04T20:04:20.852Z,85.84
2022-12-04T20:06:48.527Z,85.77
2022-12-04T20:09:21.955Z,85.53
2022-12-04T20:11:49.614Z,84.72
2022-12-04T20:14:17.772Z,85.24
2022-12-04T20:16:46.523Z,85.67
2022-12-04T20:19:16.456Z,85.62
2022-12-04T20:21:45.329Z,84.97
2022-12-04T20:24:15.869Z,84.90
2022-12-04T20:26:45.433Z,84.91
2022-12-04T20:29:15.463Z,84.94
2022-12-04T20:31:45.487Z,85.23
2022-12-04T20:34:18.320Z,85.08
2022-12-04T20:36:47.502Z,84.89
2022-12-04T20:39:16.258Z,84.91
2022-12-04T20:41:44.043Z,84.57
2022-12-04T20:44:15.415Z,84.84
2022-12-04T20:46:43.288Z,84.98
2022-12-04T20:49:20.578Z,85.07
2022-12-04T20:51:50.827Z,84.85
2022-12-04T20:54:20.247Z,84.88
2022-12-04T20:56:49.431Z,84.87
2022-12-04T20:59:18.806Z,85.18
2022-12-04T21:01:47.497Z,85.09
2022-12-04T21:04:18.061Z,84.98
2022-12-04T21:06:47.199Z,84.96
2022-12-04T21:09:17.756Z,85.13
2022-12-04T21:11:48.106Z,84.91
2022-12-04T21:14:40.077Z,84.54
2022-12-04T21:17:10.771Z,84.66
2022-12-04T21:19:38.448Z,84.42
2022-12-04T21:22:06.234Z,84.50
2022-12-04T21:24:38.841Z,84.67
2022-12-04T21:27:09.245Z,84.72
